createdAt,value
2022-08-04T00:00:17.070Z,99831.34
2022-08-04T00:02:58.977Z,99827.28
2022-08-04T00:05:35.267Z,99823.66
2022-08-04T00:08:12.837Z,99823.41
2022-08-04T00:10:41.021Z,99817.19
2022-08-04T00:13:10.424Z,99820.50
2022-08-04T00:15:39.064Z,99823.41
2022-08-04T00:18:10.845Z,99812.06
2022-08-04T00:20:42.347Z,99813.81
2022-08-04T00:23:10.266Z,99815.53
2022-08-04T00:25:41.218Z,99810.38
2022-08-04T00:28:09.853Z,99825.50
2022-08-04T00:30:37.579Z,99817.06
2022-08-04T00:33:05.614Z,99828.63
2022-08-04T00:35:35.060Z,99825.25
2022-08-04T00:38:03.625Z,99821.56
2022-08-04T00:40:37.016Z,99822.72
2022-08-04T00:43:16.037Z,99822.47
2022-08-04T00:46:18.079Z,99824.97
2022-08-04T00:49:03.137Z,99818.47
2022-08-04T00:51:45.071Z,99822.88
2022-08-04T00:54:18.838Z,99822.13
2022-08-04T00:57:30.129Z,99818.59
2022-08-04T01:00:09.444Z,99818.09
2022-08-04T01:02:40.488Z,99820.31
2022-08-04T01:05:21.369Z,99820.09
2022-08-04T01:08:11.667Z,99820.69
2022-08-04T01:10:52.766Z,99814.69
2022-08-04T01:13:39.122Z,99818.69
2022-08-04T01:16:08.381Z,99814.22
2022-08-04T01:18:46.919Z,99819.78
2022-08-04T01:21:46.070Z,99818.78
2022-08-04T01:24:29.513Z,99817.22
2022-08-04T01:27:03.776Z,99820.81
2022-08-04T01:29:47.002Z,99819.72
2022-08-04T01:32:26.171Z,99816.25
2022-08-04T01:35:07.470Z,99817.66
2022-08-04T01:37:50.088Z,99810.06
2022-08-04T01:40:18.147Z,99813.34
2022-08-04T01:42:46.404Z,99816.63
2022-08-04T01:45:16.307Z,99814.47
2022-08-04T01:47:50.300Z,99811.16
2022-08-04T01:50:18.102Z,99806.28
2022-08-04T01:52:51.004Z,99804.81
2022-08-04T01:55:19.901Z,99808.94
2022-08-04T01:57:49.586Z,99797.38
2022-08-04T02:00:21.257Z,99809.44
2022-08-04T02:02:50.965Z,99813.00
2022-08-04T02:05:21.026Z,99809.81
2022-08-04T02:08:05.314Z,99806.03
2022-08-04T02:10:45.434Z,99795.16
2022-08-04T02:13:28.211Z,99798.19
2022-08-04T02:16:04.351Z,99804.72
2022-08-04T02:18:35.331Z,99805.75
2022-08-04T02:21:03.892Z,99801.69
2022-08-04T02:23:37.094Z,99803.38
2022-08-04T02:26:07.036Z,99807.25
2022-08-04T02:28:49.250Z,99799.63
2022-08-04T02:31:30.732Z,99805.09
2022-08-04T02:34:06.682Z,99807.25
2022-08-04T02:36:37.655Z,99805.63
2022-08-04T02:39:07.799Z,99806.19
2022-08-04T02:41:36.291Z,99802.94
2022-08-04T02:44:05.762Z,99799.38
2022-08-04T02:46:36.289Z,99802.06
2022-08-04T02:49:06.105Z,99798.81
2022-08-04T02:51:36.175Z,99795.56
2022-08-04T02:54:06.187Z,99794.75
2022-08-04T02:56:37.316Z,99786.00
2022-08-04T02:59:08.061Z,99788.44
2022-08-04T03:01:38.190Z,99787.84
2022-08-04T03:04:40.916Z,99791.72
2022-08-04T03:07:47.824Z,99789.28
2022-08-04T03:10:47.329Z,99790.41
2022-08-04T03:13:36.804Z,99801.66
2022-08-04T03:16:22.566Z,99799.16
2022-08-04T03:19:24.563Z,99795.63
2022-08-04T03:22:28.721Z,99791.00
2022-08-04T03:25:25.031Z,99789.94
2022-08-04T03:28:26.219Z,99788.91
2022-08-04T03:31:14.189Z,99790.81
2022-08-04T03:33:52.091Z,99796.81
2022-08-04T03:37:02.889Z,99802.56
2022-08-04T03:39:48.261Z,99804.50
2022-08-04T03:42:35.289Z,99802.88
2022-08-04T03:45:40.606Z,99808.88
2022-08-04T03:48:35.199Z,99808.59
2022-08-04T03:51:46.068Z,99810.22
2022-08-04T03:54:57.679Z,99810.78
2022-08-04T03:57:48.518Z,99805.84
2022-08-04T04:00:19.465Z,99819.25
2022-08-04T04:03:31.464Z,99810.47
2022-08-04T04:06:20.884Z,99817.31
2022-08-04T04:09:03.686Z,99818.41
2022-08-04T04:12:00.342Z,99812.69
2022-08-04T04:14:44.744Z,99811.78
2022-08-04T04:17:34.069Z,99810.63
2022-08-04T04:20:25.583Z,99813.63
2022-08-04T04:23:01.816Z,99813.31
2022-08-04T04:25:40.897Z,99814.41
2022-08-04T04:28:45.938Z,99809.44
2022-08-04T04:31:47.672Z,99812.09
2022-08-04T04:34:36.399Z,99813.03
2022-08-04T04:37:20.701Z,99803.28
2022-08-04T04:40:03.616Z,99804.44
2022-08-04T04:42:56.607Z,99800.03
2022-08-04T04:45:31.988Z,99790.38
2022-08-04T04:48:10.982Z,99795.41
2022-08-04T04:50:56.966Z,99793.47
2022-08-04T04:53:29.545Z,99795.81
2022-08-04T04:56:04.508Z,99790.72
2022-08-04T04:58:35.110Z,99791.78
2022-08-04T05:01:41.790Z,99800.63
2022-08-04T05:04:33.866Z,99802.56
2022-08-04T05:07:22.888Z,99784.00
2022-08-04T05:10:07.761Z,99793.78
2022-08-04T05:14:38.056Z,99794.09
2022-08-04T05:15:44.373Z,99786.94
2022-08-04T05:18:20.166Z,99795.94
2022-08-04T05:20:54.315Z,99795.25
2022-08-04T05:23:26.120Z,99807.41
2022-08-04T05:25:59.521Z,99801.63
2022-08-04T05:28:30.302Z,99806.44
2022-08-04T05:31:02.285Z,99799.38
2022-08-04T05:33:35.628Z,99806.53
2022-08-04T05:36:23.529Z,99803.25
2022-08-04T05:38:59.758Z,99803.03
2022-08-04T05:41:32.241Z,99798.38
2022-08-04T05:44:13.107Z,99802.91
2022-08-04T05:46:41.969Z,99799.31
2022-08-04T05:49:12.730Z,99801.75
2022-08-04T05:51:48.759Z,99793.78
2022-08-04T05:54:18.732Z,99792.44
2022-08-04T05:56:47.116Z,99799.81
2022-08-04T05:59:16.390Z,99800.63
2022-08-04T06:01:55.567Z,99798.16
2022-08-04T06:04:30.627Z,99806.19
2022-08-04T06:06:58.319Z,99803.78
2022-08-04T06:09:26.096Z,99794.53
2022-08-04T06:12:03.609Z,99803.53
2022-08-04T06:14:39.189Z,99801.00
2022-08-04T06:17:27.152Z,99803.00
2022-08-04T06:20:20.028Z,99796.69
2022-08-04T06:22:50.363Z,99796.72
2022-08-04T06:25:23.354Z,99798.66
2022-08-04T06:27:52.403Z,99795.03
2022-08-04T06:30:20.896Z,99795.59
2022-08-04T06:33:03.778Z,99797.78
2022-08-04T06:35:34.622Z,99800.22
2022-08-04T06:38:04.209Z,99791.06
2022-08-04T06:40:34.549Z,99805.50
2022-08-04T06:43:03.807Z,99796.69
2022-08-04T06:45:34.246Z,99801.56
2022-08-04T06:48:03.451Z,99801.06
2022-08-04T06:51:24.918Z,99804.78
2022-08-04T06:53:21.240Z,99809.63
2022-08-04T06:55:50.244Z,99806.50
2022-08-04T06:58:20.031Z,99811.94
2022-08-04T07:00:49.337Z,99819.38
2022-08-04T07:03:18.971Z,99820.22
2022-08-04T07:05:49.678Z,99812.03
2022-08-04T07:08:17.867Z,99814.63
2022-08-04T07:10:46.600Z,99814.28
2022-08-04T07:13:14.944Z,99813.63
2022-08-04T07:15:44.807Z,99815.00
2022-08-04T07:18:12.451Z,99817.44
2022-08-04T07:20:42.919Z,99813.22
2022-08-04T07:23:17.185Z,99809.78
2022-08-04T07:26:00.108Z,99801.66
2022-08-04T07:28:33.221Z,99809.50
2022-08-04T07:31:03.254Z,99800.41
2022-08-04T07:33:31.588Z,99796.66
2022-08-04T07:36:09.509Z,99801.53
2022-08-04T07:38:48.600Z,99803.81
2022-08-04T07:41:38.711Z,99806.97
2022-08-04T07:44:07.781Z,99804.09
2022-08-04T07:46:36.050Z,99803.50
2022-08-04T07:49:04.183Z,99803.16
2022-08-04T07:51:33.085Z,99801.84
2022-08-04T07:54:03.872Z,99806.00
2022-08-04T07:56:32.354Z,99817.16
2022-08-04T07:59:03.274Z,99805.09
2022-08-04T08:01:31.473Z,99803.88
2022-08-04T08:04:01.268Z,99800.81
2022-08-04T08:06:32.908Z,99801.03
2022-08-04T08:09:13.446Z,99799.06
2022-08-04T08:12:37.906Z,99800.81
2022-08-04T08:14:31.422Z,99793.69
2022-08-04T08:17:00.006Z,99791.72
2022-08-04T08:19:27.627Z,99801.69
2022-08-04T08:22:00.090Z,99798.81
2022-08-04T08:24:30.587Z,99807.44
2022-08-04T08:26:58.618Z,99796.88
2022-08-04T08:29:27.541Z,99804.63
2022-08-04T08:32:00.477Z,99799.34
2022-08-04T08:34:31.960Z,99796.69
2022-08-04T08:37:05.372Z,99794.00
2022-08-04T08:39:40.959Z,99794.19
2022-08-04T08:42:39.491Z,99789.72
2022-08-04T08:45:38.485Z,99785.31
2022-08-04T08:48:17.936Z,99775.19
2022-08-04T08:51:11.522Z,99791.31
2022-08-04T08:54:29.864Z,99787.34
2022-08-04T08:57:20.425Z,99787.59
2022-08-04T09:00:08.424Z,99786.88
2022-08-04T09:03:07.260Z,99782.06
2022-08-04T09:05:56.099Z,99785.84
2022-08-04T09:08:47.363Z,99788.28
2022-08-04T09:11:17.820Z,99783.34
2022-08-04T09:13:54.189Z,99781.72
2022-08-04T09:16:26.334Z,99780.13
2022-08-04T09:18:58.637Z,99784.09
2022-08-04T09:21:32.758Z,99783.78
2022-08-04T09:24:36.858Z,99783.91
2022-08-04T09:26:59.718Z,99787.34
2022-08-04T09:29:37.563Z,99781.25
2022-08-04T09:32:11.682Z,99781.13
2022-08-04T09:35:03.488Z,99779.78
2022-08-04T09:37:45.596Z,99779.00
2022-08-04T09:40:31.942Z,99780.88
2022-08-04T09:43:19.884Z,99785.03
2022-08-04T09:46:03.375Z,99775.28
2022-08-04T09:48:37.765Z,99780.41
2022-08-04T09:51:15.920Z,99771.75
2022-08-04T09:53:56.347Z,99778.56
2022-08-04T09:56:31.631Z,99780.84
2022-08-04T09:59:12.261Z,99776.59
2022-08-04T10:01:44.811Z,99766.69
2022-08-04T10:04:17.672Z,99775.28
2022-08-04T10:07:05.493Z,99772.13
2022-08-04T10:09:48.088Z,99763.97
2022-08-04T10:12:30.564Z,99763.63
2022-08-04T10:15:07.651Z,99755.56
2022-08-04T10:18:05.685Z,99754.28
2022-08-04T10:21:04.761Z,99742.75
2022-08-04T10:23:56.405Z,99750.91
2022-08-04T10:26:37.835Z,99752.09
2022-08-04T10:29:12.017Z,99747.97
2022-08-04T10:31:45.885Z,99754.25
2022-08-04T10:34:20.217Z,99750.69
2022-08-04T10:36:57.681Z,99738.66
2022-08-04T10:39:43.725Z,99750.06
2022-08-04T10:42:22.628Z,99743.22
2022-08-04T10:45:02.394Z,99734.22
2022-08-04T10:47:43.088Z,99740.19
2022-08-04T10:50:14.236Z,99734.59
2022-08-04T10:52:47.225Z,99733.97
2022-08-04T10:55:19.692Z,99729.78
2022-08-04T10:57:52.679Z,99726.59
2022-08-04T11:00:23.959Z,99732.00
2022-08-04T11:02:57.014Z,99722.06
2022-08-04T11:05:32.701Z,99722.56
2022-08-04T11:08:11.497Z,99715.50
2022-08-04T11:10:47.578Z,99714.00
2022-08-04T11:13:29.355Z,99714.84
2022-08-04T11:16:03.500Z,99707.16
2022-08-04T11:18:41.148Z,99716.16
2022-08-04T11:21:17.143Z,99722.91
2022-08-04T11:23:48.874Z,99716.47
2022-08-04T11:26:22.891Z,99714.97
2022-08-04T11:29:03.688Z,99718.81
2022-08-04T11:31:36.359Z,99715.31
2022-08-04T11:34:06.938Z,99718.72
2022-08-04T11:36:42.658Z,99715.72
2022-08-04T11:39:16.565Z,99708.41
2022-08-04T11:41:52.398Z,99715.19
2022-08-04T11:44:26.724Z,99713.78
2022-08-04T11:46:57.847Z,99697.50
2022-08-04T11:49:32.513Z,99704.50
2022-08-04T11:52:23.714Z,99716.66
2022-08-04T11:54:54.823Z,99712.69
2022-08-04T11:57:35.105Z,99710.91
2022-08-04T12:00:08.803Z,99705.69
2022-08-04T12:02:59.694Z,99705.03
2022-08-04T12:05:37.088Z,99696.41
2022-08-04T12:08:22.252Z,99689.00
2022-08-04T12:11:01.423Z,99689.53
2022-08-04T12:13:36.163Z,99696.13
2022-08-04T12:16:11.855Z,99698.22
2022-08-04T12:18:43.828Z,99693.22
2022-08-04T12:21:15.864Z,99700.44
2022-08-04T12:23:47.246Z,99696.53
2022-08-04T12:26:18.590Z,99690.47
2022-08-04T12:31:45.374Z,99684.69
2022-08-04T12:34:17.501Z,99682.44
2022-08-04T12:36:55.523Z,99675.38
2022-08-04T12:39:28.005Z,99671.78
2022-08-04T12:42:07.854Z,99683.69
2022-08-04T12:44:39.158Z,99671.56
2022-08-04T12:47:26.544Z,99680.16
2022-08-04T12:50:00.708Z,99672.03
2022-08-04T12:53:00.864Z,99666.16
2022-08-04T12:55:22.305Z,99668.66
2022-08-04T12:57:52.061Z,99659.34
2022-08-04T13:00:31.196Z,99658.06
2022-08-04T13:03:10.163Z,99656.56
2022-08-04T13:05:40.708Z,99659.16
2022-08-04T13:08:11.073Z,99656.59
2022-08-04T13:10:42.314Z,99653.88
2022-08-04T13:13:15.983Z,99655.41
2022-08-04T13:15:47.568Z,99651.31
2022-08-04T13:18:29.538Z,99657.13
2022-08-04T13:21:20.608Z,99646.56
2022-08-04T13:24:19.164Z,99657.03
2022-08-04T13:26:54.638Z,99653.56
2022-08-04T13:29:58.746Z,99645.16
2022-08-04T13:32:17.654Z,99647.56
2022-08-04T13:34:49.583Z,99647.56
2022-08-04T13:37:23.465Z,99643.63
2022-08-04T13:39:55.915Z,99640.72
2022-08-04T13:42:26.822Z,99640.41
2022-08-04T13:44:57.091Z,99642.84
2022-08-04T13:47:30.044Z,99632.69
2022-08-04T13:50:11.603Z,99631.56
2022-08-04T13:52:40.844Z,99625.66
2022-08-04T13:55:09.355Z,99620.84
2022-08-04T13:57:46.447Z,99623.66
2022-08-04T14:00:16.912Z,99622.47
2022-08-04T14:03:01.763Z,99612.47
2022-08-04T14:05:58.724Z,99611.91
2022-08-04T14:08:23.562Z,99608.66
2022-08-04T14:11:00.130Z,99605.38
2022-08-04T14:13:41.800Z,99602.63
2022-08-04T14:16:20.252Z,99596.78
2022-08-04T14:18:49.263Z,99597.69
2022-08-04T14:21:18.798Z,99592.81
2022-08-04T14:23:49.850Z,99590.72
2022-08-04T14:26:20.835Z,99595.84
2022-08-04T14:29:27.252Z,99576.63
2022-08-04T14:32:06.036Z,99579.88
2022-08-04T14:34:41.245Z,99576.47
2022-08-04T14:37:17.633Z,99576.47
2022-08-04T14:40:19.039Z,99582.50
2022-08-04T14:42:43.454Z,99580.75
2022-08-04T14:45:13.103Z,99570.16
2022-08-04T14:47:52.534Z,99574.69
2022-08-04T14:50:22.197Z,99569.31
2022-08-04T14:52:49.845Z,99567.75
2022-08-04T14:55:19.301Z,99565.75
2022-08-04T14:58:35.008Z,99578.09
2022-08-04T15:00:37.922Z,99565.34
2022-08-04T15:03:08.499Z,99561.94
2022-08-04T15:06:02.198Z,99561.22
2022-08-04T15:08:31.116Z,99561.06
2022-08-04T15:11:02.728Z,99555.75
2022-08-04T15:13:31.107Z,99550.47
2022-08-04T15:16:04.090Z,99554.53
2022-08-04T15:18:37.176Z,99552.13
2022-08-04T15:21:05.412Z,99550.69
2022-08-04T15:23:39.642Z,99545.50
2022-08-04T15:26:12.691Z,99540.69
2022-08-04T15:28:43.336Z,99551.25
2022-08-04T15:32:03.909Z,99544.78
2022-08-04T15:34:00.990Z,99552.03
2022-08-04T15:36:36.756Z,99548.34
2022-08-04T15:39:12.260Z,99538.47
2022-08-04T15:41:55.035Z,99543.34
2022-08-04T15:44:54.800Z,99538.88
2022-08-04T15:47:28.331Z,99536.16
2022-08-04T15:50:08.909Z,99543.44
2022-08-04T15:53:10.517Z,99538.25
2022-08-04T15:55:42.896Z,99544.69
2022-08-04T15:58:12.588Z,99532.53
2022-08-04T16:01:19.408Z,99532.81
2022-08-04T16:03:57.989Z,99523.28
2022-08-04T16:06:45.145Z,99527.78
2022-08-04T16:09:45.501Z,99527.66
2022-08-04T16:12:55.036Z,99521.69
2022-08-04T16:15:39.169Z,99527.28
2022-08-04T16:18:13.781Z,99522.63
2022-08-04T16:20:57.220Z,99525.88
2022-08-04T16:23:55.967Z,99521.97
2022-08-04T16:26:54.640Z,99523.00
2022-08-04T16:29:28.397Z,99514.09
2022-08-04T16:32:13.159Z,99504.31
2022-08-04T16:34:49.187Z,99504.44
2022-08-04T16:37:25.154Z,99506.91
2022-08-04T16:40:31.785Z,99501.50
2022-08-04T16:43:08.825Z,99502.22
2022-08-04T16:45:51.751Z,99503.72
2022-08-04T16:48:20.527Z,99507.25
2022-08-04T16:50:56.086Z,99500.75
2022-08-04T16:54:04.285Z,99500.16
2022-08-04T16:56:18.696Z,99495.72
2022-08-04T16:58:50.688Z,99492.31
2022-08-04T17:01:33.391Z,99489.84
2022-08-04T17:04:06.052Z,99497.34
2022-08-04T17:06:36.889Z,99488.97
2022-08-04T17:09:12.132Z,99491.13
2022-08-04T17:11:40.356Z,99491.81
2022-08-04T17:14:08.102Z,99482.75
2022-08-04T17:16:39.447Z,99480.19
2022-08-04T17:19:19.773Z,99485.94
2022-08-04T17:21:53.432Z,99487.41
2022-08-04T17:24:22.337Z,99492.75
2022-08-04T17:26:54.322Z,99483.25
2022-08-04T17:29:43.015Z,99481.84
2022-08-04T17:32:15.815Z,99483.13
2022-08-04T17:34:48.786Z,99489.13
2022-08-04T17:37:38.308Z,99489.31
2022-08-04T17:40:13.326Z,99488.03
2022-08-04T17:42:42.356Z,99496.22
2022-08-04T17:48:02.968Z,99486.69
2022-08-04T17:50:34.762Z,99488.25
2022-08-04T17:53:12.121Z,99490.22
2022-08-04T17:55:44.304Z,99488.25
2022-08-04T17:58:20.844Z,99484.72
2022-08-04T18:00:51.178Z,99491.16
2022-08-04T18:03:24.607Z,99490.72
2022-08-04T18:06:03.541Z,99492.28
2022-08-04T18:08:39.724Z,99476.69
2022-08-04T18:11:22.143Z,99486.88
2022-08-04T18:13:57.260Z,99491.47
2022-08-04T18:16:27.391Z,99479.38
2022-08-04T18:19:10.851Z,99487.91
2022-08-04T18:21:46.853Z,99496.94
2022-08-04T18:24:34.108Z,99498.69
2022-08-04T18:27:06.339Z,99502.28
2022-08-04T18:29:39.305Z,99506.88
2022-08-04T18:32:09.128Z,99514.88
2022-08-04T18:34:40.730Z,99507.97
2022-08-04T18:38:03.156Z,99521.03
2022-08-04T18:40:26.448Z,99520.88
2022-08-04T18:43:00.458Z,99530.31
2022-08-04T18:45:34.110Z,99532.16
2022-08-04T18:51:10.258Z,99532.16
2022-08-04T18:53:38.625Z,99540.56
2022-08-04T18:56:19.935Z,99539.09
2022-08-04T18:59:00.012Z,99540.81
2022-08-04T19:01:27.932Z,99541.78
2022-08-04T19:03:58.384Z,99547.00
2022-08-04T19:06:27.527Z,99543.59
2022-08-04T19:08:55.433Z,99551.38
2022-08-04T19:11:52.570Z,99549.13
2022-08-04T19:14:13.691Z,99549.78
2022-08-04T19:16:46.129Z,99550.09
2022-08-04T19:19:15.482Z,99547.72
2022-08-04T19:22:00.109Z,99546.41
2022-08-04T19:24:34.052Z,99541.91
2022-08-04T19:27:07.398Z,99541.09
2022-08-04T19:29:43.141Z,99552.63
2022-08-04T19:32:14.798Z,99542.81
2022-08-04T19:34:45.995Z,99553.72
2022-08-04T19:37:55.979Z,99558.91
2022-08-04T19:40:04.764Z,99560.16
2022-08-04T19:42:32.584Z,99556.59
2022-08-04T19:45:02.227Z,99561.19
2022-08-04T19:47:30.801Z,99566.22
2022-08-04T19:50:17.791Z,99570.50
2022-08-04T19:52:52.117Z,99569.22
2022-08-04T19:55:22.132Z,99573.88
2022-08-04T19:57:50.741Z,99565.78
2022-08-04T20:00:33.346Z,99570.03
2022-08-04T20:03:02.710Z,99565.47
2022-08-04T20:05:54.386Z,99570.78
2022-08-04T20:08:19.008Z,99569.06
2022-08-04T20:10:51.994Z,99572.00
2022-08-04T20:13:20.121Z,99574.28
2022-08-04T20:15:57.466Z,99575.91
2022-08-04T20:18:35.685Z,99574.75
2022-08-04T20:21:18.783Z,99573.25
2022-08-04T20:26:35.443Z,99581.84
2022-08-04T20:29:03.341Z,99579.16
2022-08-04T20:31:33.258Z,99581.47
2022-08-04T20:34:10.987Z,99577.97
2022-08-04T20:36:38.554Z,99581.91
2022-08-04T20:39:17.505Z,99589.41
2022-08-04T20:41:45.127Z,99595.94
2022-08-04T20:44:12.876Z,99587.63
2022-08-04T20:46:42.030Z,99589.78
2022-08-04T20:49:09.963Z,99585.91
2022-08-04T20:51:40.352Z,99590.38
2022-08-04T20:54:16.605Z,99603.94
2022-08-04T20:56:50.912Z,99604.41
2022-08-04T20:59:19.238Z,99600.72
2022-08-04T21:01:49.471Z,99601.06
2022-08-04T21:04:32.463Z,99601.78
2022-08-04T21:07:01.623Z,99606.38
2022-08-04T21:09:38.005Z,99603.50
2022-08-04T21:12:26.541Z,99598.38
2022-08-04T21:14:57.794Z,99606.88
2022-08-04T21:17:57.600Z,99613.28
2022-08-04T21:20:27.314Z,99609.31
2022-08-04T21:22:55.663Z,99612.44
2022-08-04T21:25:27.766Z,99608.88
2022-08-04T21:27:58.796Z,99613.66
2022-08-04T21:30:27.389Z,99617.75
2022-08-04T21:32:56.399Z,99620.50
2022-08-04T21:35:38.205Z,99623.66
2022-08-04T21:38:16.256Z,99618.81
2022-08-04T21:40:53.299Z,99620.44
2022-08-04T21:43:23.511Z,99616.38
2022-08-04T21:45:55.893Z,99621.09
2022-08-04T21:48:27.308Z,99612.97
2022-08-04T21:50:56.420Z,99620.81
2022-08-04T21:53:27.727Z,99610.75
2022-08-04T22:01:51.058Z,99620.28
2022-08-04T22:04:20.682Z,99605.19
2022-08-04T22:06:51.926Z,99619.22
2022-08-04T22:09:21.834Z,99603.00
2022-08-04T22:11:51.729Z,99608.53
2022-08-04T22:14:27.522Z,99613.56
2022-08-04T22:16:57.700Z,99612.63
2022-08-04T22:19:40.241Z,99620.91
2022-08-04T22:22:24.475Z,99623.81
2022-08-04T22:24:54.340Z,99621.06
2022-08-04T22:27:35.850Z,99624.97
2022-08-04T22:30:09.240Z,99616.38
2022-08-04T22:32:44.372Z,99618.81
2022-08-04T22:35:35.921Z,99624.81
2022-08-04T22:38:07.842Z,99622.38
2022-08-04T22:40:57.013Z,99617.69
2022-08-04T22:43:33.610Z,99620.44
2022-08-04T22:46:04.019Z,99623.84
2022-08-04T22:48:33.126Z,99624.66
2022-08-04T22:51:02.619Z,99615.25
2022-08-04T22:53:30.740Z,99621.56
2022-08-04T22:56:10.291Z,99620.94
2022-08-04T22:58:45.190Z,99618.66
2022-08-04T23:01:14.917Z,99623.69
2022-08-04T23:03:50.859Z,99623.81
2022-08-04T23:06:28.682Z,99629.31
2022-08-04T23:08:56.617Z,99621.72
2022-08-04T23:11:24.848Z,99630.78
2022-08-04T23:14:02.784Z,99629.50
2022-08-04T23:16:30.904Z,99635.50
2022-08-04T23:19:00.167Z,99631.59
2022-08-04T23:21:40.728Z,99634.22
2022-08-04T23:24:09.434Z,99636.78
2022-08-04T23:26:37.279Z,99648.94
2022-08-04T23:29:05.209Z,99649.94
2022-08-04T23:31:41.023Z,99649.75
2022-08-04T23:34:12.239Z,99648.94
2022-08-04T23:36:42.419Z,99655.56
2022-08-04T23:39:10.492Z,99661.09
2022-08-04T23:41:53.431Z,99665.31
2022-08-04T23:44:26.653Z,99670.81
2022-08-04T23:47:01.297Z,99663.34
2022-08-04T23:49:43.847Z,99660.59
2022-08-04T23:52:27.731Z,99667.22
2022-08-04T23:54:58.370Z,99662.50
2022-08-04T23:57:31.306Z,99671.78
